This demonstration page uses our WeatherBlox Daily Observations layout. Learn more.

Left ArrowRight Arrow

39.92423, -83.80882

Hourly Observations for August 11, 2019

Temp ( °F °C ) Dew Point ( °F °C ) Humidity (%) Winds ( mph kmh ) Pressure ( in mb ) Visibility ( mi km ) Precip ( " mm )
12:56 am 00:56 Clear 61 16.1 57 13.9 87 87 N N/A 30.05 1018 10 16.0934 N/A
1:56 am 01:56 Clear 58 14.4 56 13.3 93 93 E 3 6 30.06 1018 10 16.0934 N/A
2:56 am 02:56 Clear 61 16.1 56 13.3 84 84 SSE 5 7 30.05 1018 10 16.0934 N/A
3:56 am 03:56 Clear 58 14.4 55 12.8 90 90 E 5 7 30.05 1018 10 16.0934 N/A
4:56 am 04:56 Clear 59 15 55 12.8 87 87 N N/A 30.06 1018 10 16.0934 N/A
5:56 am 05:56 Clear 55 12.8 54 12.2 96 96 E 5 7 30.07 1018 10 16.0934 N/A
6:56 am 06:56 Sunny 55 12.8 54 12.2 96 96 E 3 6 30.08 1019 10 16.0934 N/A
7:56 am 07:56 Sunny 62 16.7 59 15 90 90 ESE 3 6 30.09 1019 10 16.0934 N/A
8:56 am 08:56 Sunny 69 20.6 57 13.9 66 66 SE 7 11 30.1 1019 10 16.0934 N/A
9:56 am 09:56 Sunny 74 23.3 58 14.4 57 57 undefined N/A 30.1 1019 10 16.0934 N/A
10:56 am 10:56 Sunny 78 25.6 58 14.4 50 50 SSE 7 11 30.1 1019 10 16.0934 N/A
11:56 am 11:56 Sunny 79 26.1 55 12.8 44 44 S 8 13 30.1 1019 10 16.0934 N/A
12:56 pm 12:56 Sunny 81 27.2 56 13.3 42 42 S 7 11 30.09 1019 10 16.0934 N/A
1:56 pm 13:56 Sunny 81 27.2 57 13.9 44 44 S 8 13 30.09 1019 10 16.0934 N/A
2:56 pm 14:56 Sunny 82 27.8 56 13.3 41 41 SE 6 9 30.06 1018 9 14.48406 N/A
3:56 pm 15:56 Sunny 82 27.8 58 14.4 44 44 SE 8 13 30.06 1018 10 16.0934 N/A
4:56 pm 16:56 Sunny 82 27.8 59 15 46 46 VRB 3 6 30.05 1018 10 16.0934 N/A
5:56 pm 17:56 Sunny 82 27.8 59 15 46 46 SSE 7 11 30.03 1017 10 16.0934 N/A
6:56 pm 18:56 Sunny 80 26.7 61 16.1 52 52 SSE 3 6 30.02 1017 10 16.0934 N/A
7:56 pm 19:56 Sunny 77 25 63 17.2 62 62 SSE 3 6 30.01 1016 10 16.0934 N/A
8:56 pm 20:56 Clear 74 23.3 63 17.2 69 69 SE 3 6 30.01 1016 10 16.0934 N/A
9:56 pm 21:56 Clear 71 21.7 63 17.2 76 76 SE 6 9 30.01 1016 10 16.0934 N/A
10:56 pm 22:56 Partly Cloudy 72 22.2 61 16.1 68 68 SE 3 6 30.01 1016 10 16.0934 N/A
11:56 pm 23:56 Mostly Clear 71 21.7 61 16.1 71 71 S 5 7 30 1016 10 16.0934 N/A

Powered by AerisWeather